createdAt,value
2023-06-21T00:01:36.253Z,101248.03
2023-06-21T00:04:02.873Z,101236.19
2023-06-21T00:06:32.301Z,101236.69
2023-06-21T00:08:59.037Z,101240.88
2023-06-21T00:11:25.655Z,101244.25
2023-06-21T00:13:56.102Z,101224.63
2023-06-21T00:16:25.751Z,101239.75
2023-06-21T00:18:52.383Z,101257.09
2023-06-21T00:21:18.946Z,101249.16
2023-06-21T00:23:45.460Z,101246.53
2023-06-21T00:26:11.937Z,101223.59
2023-06-21T00:28:38.607Z,101245.28
2023-06-21T00:31:09.648Z,101251.75
2023-06-21T00:33:36.339Z,101250.34
2023-06-21T00:36:03.370Z,101248.66
2023-06-21T00:38:35.736Z,101228.38
2023-06-21T00:41:08.992Z,101246.06
2023-06-21T00:43:35.826Z,101242.41
2023-06-21T00:46:02.469Z,101241.78
2023-06-21T00:48:30.192Z,101252.66
2023-06-21T00:50:57.685Z,101233.56
2023-06-21T00:53:27.399Z,101242.28
2023-06-21T00:55:54.504Z,101241.09
2023-06-21T00:58:21.562Z,101279.69
2023-06-21T01:00:51.362Z,101279.63
2023-06-21T01:03:23.029Z,101256.34
2023-06-21T01:06:25.397Z,101265.41
2023-06-21T01:09:22.510Z,101274.28
2023-06-21T01:12:01.662Z,101278.53
2023-06-21T01:14:35.390Z,101293.06
2023-06-21T01:17:04.770Z,101284.06
2023-06-21T01:19:47.997Z,101299.28
2023-06-21T01:22:39.113Z,101292.84
2023-06-21T01:25:08.051Z,101305.47
2023-06-21T01:27:37.319Z,101296.56
2023-06-21T01:30:06.673Z,101282.13
2023-06-21T01:32:33.762Z,101289.31
2023-06-21T01:35:02.198Z,101301.75
2023-06-21T01:37:28.752Z,101304.63
2023-06-21T01:39:55.239Z,101287.16
2023-06-21T01:42:21.821Z,101302.41
2023-06-21T01:44:49.529Z,101298.97
2023-06-21T01:47:16.319Z,101305.44
2023-06-21T01:49:43.936Z,101308.06
2023-06-21T01:52:11.607Z,101320.19
2023-06-21T01:54:42.379Z,101330.75
2023-06-21T01:57:12.053Z,101316.38
2023-06-21T01:59:39.113Z,101327.50
2023-06-21T02:02:06.771Z,101296.78
2023-06-21T02:04:34.864Z,101305.66
2023-06-21T02:07:03.508Z,101336.59
2023-06-21T02:09:31.972Z,101335.88
2023-06-21T02:11:59.635Z,101333.47
2023-06-21T02:14:26.182Z,101309.63
2023-06-21T02:16:52.700Z,101327.88
2023-06-21T02:19:19.510Z,101339.03
2023-06-21T02:21:46.124Z,101329.31
2023-06-21T02:24:12.967Z,101338.69
2023-06-21T02:26:39.616Z,101332.41
2023-06-21T02:29:06.129Z,101338.47
2023-06-21T02:31:34.183Z,101334.81
2023-06-21T02:34:00.944Z,101338.47
2023-06-21T02:36:27.506Z,101347.03
2023-06-21T02:38:54.063Z,101354.84
2023-06-21T02:41:20.643Z,101360.16
2023-06-21T02:43:47.208Z,101354.09
2023-06-21T02:46:13.747Z,101360.25
2023-06-21T02:48:40.334Z,101333.00
2023-06-21T02:51:06.825Z,101367.69
2023-06-21T02:53:33.316Z,101352.25
2023-06-21T02:56:00.174Z,101350.56
2023-06-21T02:58:27.053Z,101362.91
2023-06-21T03:00:53.705Z,101363.97
2023-06-21T03:03:20.478Z,101336.09
2023-06-21T03:05:47.167Z,101367.03
2023-06-21T03:08:13.762Z,101368.28
2023-06-21T03:10:40.455Z,101376.97
2023-06-21T03:13:07.186Z,101346.38
2023-06-21T03:15:33.862Z,101367.56
2023-06-21T03:18:00.458Z,101387.69
2023-06-21T03:20:27.777Z,101390.56
2023-06-21T03:22:54.590Z,101387.44
2023-06-21T03:25:21.124Z,101367.81
2023-06-21T03:27:48.782Z,101392.66
2023-06-21T03:30:15.762Z,101401.50
2023-06-21T03:32:48.757Z,101402.25
2023-06-21T03:35:19.571Z,101397.84
2023-06-21T03:37:47.709Z,101382.44
2023-06-21T03:40:15.386Z,101377.59
2023-06-21T03:42:43.856Z,101370.66
2023-06-21T03:45:11.253Z,101404.28
2023-06-21T03:47:40.586Z,101413.06
2023-06-21T03:50:11.078Z,101405.13
2023-06-21T03:52:37.727Z,101420.84
2023-06-21T03:55:05.727Z,101396.06
2023-06-21T03:57:32.332Z,101419.34
2023-06-21T03:59:58.864Z,101421.13
2023-06-21T04:02:25.514Z,101406.75
2023-06-21T04:04:52.702Z,101421.56
2023-06-21T04:07:21.735Z,101440.25
2023-06-21T04:09:49.089Z,101435.63
2023-06-21T04:12:15.643Z,101440.72
2023-06-21T04:14:42.241Z,101436.31
2023-06-21T04:17:08.802Z,101437.22
2023-06-21T04:19:35.338Z,101438.38
2023-06-21T04:22:01.957Z,101445.47
2023-06-21T04:24:28.517Z,101422.28
2023-06-21T04:26:56.425Z,101435.84
2023-06-21T04:29:23.276Z,101438.38
2023-06-21T04:31:53.196Z,101448.94
2023-06-21T04:34:20.578Z,101443.66
2023-06-21T04:36:48.661Z,101415.28
2023-06-21T04:39:17.244Z,101437.56
2023-06-21T04:41:46.939Z,101443.59
2023-06-21T04:44:18.188Z,101409.84
2023-06-21T04:46:48.021Z,101438.38
2023-06-21T04:49:16.990Z,101432.56
2023-06-21T04:51:44.609Z,101451.47
2023-06-21T04:54:11.317Z,101455.88
2023-06-21T04:56:37.935Z,101443.81
2023-06-21T04:59:04.708Z,101448.94
2023-06-21T05:01:32.277Z,101460.16
2023-06-21T05:03:58.870Z,101450.09
2023-06-21T05:06:28.423Z,101461.16
2023-06-21T05:08:55.171Z,101466.22
2023-06-21T05:11:21.736Z,101477.59
2023-06-21T05:13:48.485Z,101479.44
2023-06-21T05:16:15.063Z,101491.72
2023-06-21T05:18:41.785Z,101487.63
2023-06-21T05:21:08.385Z,101497.91
2023-06-21T05:23:35.024Z,101492.84
2023-06-21T05:26:04.794Z,101470.94
2023-06-21T05:28:31.851Z,101492.47
2023-06-21T05:30:58.484Z,101496.94
2023-06-21T05:33:25.076Z,101483.41
2023-06-21T05:35:51.601Z,101488.28
2023-06-21T05:38:18.121Z,101469.34
2023-06-21T05:40:44.774Z,101472.56
2023-06-21T05:43:11.413Z,101463.88
2023-06-21T05:45:39.550Z,101490.09
2023-06-21T05:48:06.483Z,101496.97
2023-06-21T05:50:33.188Z,101494.03
2023-06-21T05:53:00.247Z,101507.81
2023-06-21T05:55:27.295Z,101476.75
2023-06-21T05:57:53.836Z,101512.72
2023-06-21T06:00:20.558Z,101520.44
2023-06-21T06:02:47.277Z,101529.75
2023-06-21T06:05:13.868Z,101512.50
2023-06-21T06:07:40.497Z,101542.38
2023-06-21T06:10:07.456Z,101535.38
2023-06-21T06:12:34.777Z,101539.66
2023-06-21T06:15:01.775Z,101540.53
2023-06-21T06:17:28.749Z,101551.56
2023-06-21T06:19:55.361Z,101545.28
2023-06-21T06:22:22.811Z,101520.53
2023-06-21T06:24:49.814Z,101547.81
2023-06-21T06:27:16.421Z,101552.19
2023-06-21T06:29:42.998Z,101541.03
2023-06-21T06:32:09.622Z,101564.25
2023-06-21T06:34:36.182Z,101568.56
2023-06-21T06:37:13.625Z,101583.19
2023-06-21T06:39:41.629Z,101581.16
2023-06-21T06:42:09.510Z,101552.53
2023-06-21T06:44:36.080Z,101563.75
2023-06-21T06:47:02.796Z,101587.69
2023-06-21T06:49:29.396Z,101589.28
2023-06-21T06:51:56.063Z,101602.19
2023-06-21T06:54:22.688Z,101582.41
2023-06-21T06:56:49.362Z,101600.16
2023-06-21T06:59:16.078Z,101601.00
2023-06-21T07:01:42.593Z,101598.13
2023-06-21T07:04:09.231Z,101575.88
2023-06-21T07:06:36.029Z,101596.19
2023-06-21T07:09:03.710Z,101570.41
2023-06-21T07:11:32.054Z,101608.56
2023-06-21T07:13:58.771Z,101572.31
2023-06-21T07:16:25.550Z,101592.00
2023-06-21T07:18:52.205Z,101611.66
2023-06-21T07:21:21.892Z,101607.28
2023-06-21T07:23:50.398Z,101626.88
2023-06-21T07:26:17.076Z,101625.22
2023-06-21T07:28:44.706Z,101627.56
2023-06-21T07:31:11.539Z,101622.44
2023-06-21T07:33:38.518Z,101624.91
2023-06-21T07:36:06.287Z,101632.63
2023-06-21T07:38:32.810Z,101643.84
2023-06-21T07:40:59.481Z,101622.97
2023-06-21T07:43:26.118Z,101631.88
2023-06-21T07:45:59.879Z,101633.94
2023-06-21T07:48:39.129Z,101638.00
2023-06-21T07:51:05.662Z,101616.50
2023-06-21T07:53:33.140Z,101622.53
2023-06-21T07:56:16.091Z,101644.44
2023-06-21T07:58:43.732Z,101649.53
2023-06-21T08:01:10.713Z,101632.50
2023-06-21T08:03:37.364Z,101629.09
2023-06-21T08:06:04.049Z,101639.59
2023-06-21T08:08:30.562Z,101653.56
2023-06-21T08:10:57.418Z,101612.19
2023-06-21T08:13:24.291Z,101645.59
2023-06-21T08:15:52.308Z,101626.53
2023-06-21T08:18:18.915Z,101645.16
2023-06-21T08:20:45.522Z,101640.78
2023-06-21T08:23:12.074Z,101656.03
2023-06-21T08:25:38.599Z,101648.75
2023-06-21T08:28:05.636Z,101660.91
2023-06-21T08:30:32.295Z,101667.78
2023-06-21T08:32:58.810Z,101663.31
2023-06-21T08:35:25.463Z,101674.53
2023-06-21T08:37:57.454Z,101676.22
2023-06-21T08:40:32.772Z,101675.41
2023-06-21T08:43:00.665Z,101669.47
2023-06-21T08:45:27.828Z,101678.28
2023-06-21T08:47:59.631Z,101653.38
2023-06-21T08:50:26.427Z,101685.22
2023-06-21T08:52:54.843Z,101682.31
2023-06-21T08:55:24.732Z,101684.69
2023-06-21T08:58:03.528Z,101688.22
2023-06-21T09:00:35.167Z,101689.63
2023-06-21T09:03:16.380Z,101666.56
2023-06-21T09:05:53.470Z,101674.59
2023-06-21T09:08:20.435Z,101699.13
2023-06-21T09:10:51.629Z,101676.41
2023-06-21T09:13:23.308Z,101692.41
2023-06-21T09:15:51.484Z,101694.22
2023-06-21T09:18:19.704Z,101675.81
2023-06-21T09:20:48.689Z,101660.91
2023-06-21T09:23:15.416Z,101697.81
2023-06-21T09:25:43.376Z,101702.94
2023-06-21T09:28:10.024Z,101707.31
2023-06-21T09:30:39.044Z,101705.59
2023-06-21T09:33:06.814Z,101693.44
2023-06-21T09:35:34.066Z,101681.66
2023-06-21T09:38:00.538Z,101705.31
2023-06-21T09:40:27.099Z,101691.13
2023-06-21T09:42:54.568Z,101704.75
2023-06-21T09:45:21.464Z,101714.56
2023-06-21T09:47:48.292Z,101716.47
2023-06-21T09:50:15.130Z,101722.53
2023-06-21T09:52:44.457Z,101708.25
2023-06-21T09:55:15.514Z,101709.84
2023-06-21T09:57:42.266Z,101705.53
2023-06-21T10:00:09.429Z,101700.88
2023-06-21T10:02:42.687Z,101689.31
2023-06-21T10:05:20.380Z,101703.59
2023-06-21T10:07:47.849Z,101709.25
2023-06-21T10:10:15.442Z,101713.25
2023-06-21T10:12:56.384Z,101714.78
2023-06-21T10:15:23.781Z,101705.94
2023-06-21T10:17:59.910Z,101715.47
2023-06-21T10:20:32.366Z,101714.50
2023-06-21T10:23:02.434Z,101710.16
2023-06-21T10:25:29.830Z,101692.78
2023-06-21T10:27:59.722Z,101702.84
2023-06-21T10:30:28.422Z,101686.03
2023-06-21T10:32:58.969Z,101690.88
2023-06-21T10:35:27.373Z,101722.63
2023-06-21T10:38:05.011Z,101722.25
2023-06-21T10:40:34.128Z,101723.00
2023-06-21T10:43:00.903Z,101721.91
2023-06-21T10:45:30.085Z,101728.16
2023-06-21T10:47:57.757Z,101723.97
2023-06-21T10:50:25.856Z,101704.16
2023-06-21T10:52:55.124Z,101732.00
2023-06-21T10:55:24.736Z,101721.03
2023-06-21T10:57:56.717Z,101725.06
2023-06-21T11:00:25.266Z,101707.59
2023-06-21T11:02:53.200Z,101727.94
2023-06-21T11:05:20.963Z,101729.16
2023-06-21T11:07:58.460Z,101720.53
2023-06-21T11:10:43.790Z,101735.75
2023-06-21T11:13:12.089Z,101711.34
2023-06-21T11:15:44.010Z,101719.91
2023-06-21T11:18:11.862Z,101741.88
2023-06-21T11:20:52.868Z,101744.34
2023-06-21T11:23:25.028Z,101745.50
2023-06-21T11:26:16.023Z,101746.94
2023-06-21T11:28:48.226Z,101726.13
2023-06-21T11:31:24.074Z,101750.81
2023-06-21T11:33:57.507Z,101757.28
2023-06-21T11:36:32.494Z,101765.63
2023-06-21T11:39:20.602Z,101758.72
2023-06-21T11:41:48.228Z,101770.97
2023-06-21T11:44:20.935Z,101764.13
2023-06-21T11:46:48.548Z,101748.31
2023-06-21T11:49:15.205Z,101763.06
2023-06-21T11:52:04.544Z,101764.97
2023-06-21T11:54:33.234Z,101749.78
2023-06-21T11:56:59.890Z,101767.44
2023-06-21T11:59:27.530Z,101772.66
2023-06-21T12:01:54.604Z,101781.31
2023-06-21T12:04:28.387Z,101760.41
2023-06-21T12:06:58.972Z,101770.28
2023-06-21T12:09:25.833Z,101769.25
2023-06-21T12:11:52.593Z,101742.19
2023-06-21T12:14:20.655Z,101753.28
2023-06-21T12:16:50.761Z,101770.00
2023-06-21T12:19:17.443Z,101784.06
2023-06-21T12:21:44.053Z,101758.63
2023-06-21T12:24:10.631Z,101786.75
2023-06-21T12:26:51.408Z,101776.03
2023-06-21T12:29:18.053Z,101761.59
2023-06-21T12:31:44.859Z,101757.03
2023-06-21T12:34:16.774Z,101764.16
2023-06-21T12:36:46.643Z,101784.28
2023-06-21T12:39:15.579Z,101772.97
2023-06-21T12:41:44.399Z,101761.56
2023-06-21T12:44:21.799Z,101795.50
2023-06-21T12:46:49.074Z,101799.78
2023-06-21T12:49:15.972Z,101805.28
2023-06-21T12:51:42.936Z,101804.91
2023-06-21T12:54:24.008Z,101798.81
2023-06-21T12:56:54.180Z,101800.56
2023-06-21T12:59:21.053Z,101816.44
2023-06-21T13:01:47.714Z,101829.75
2023-06-21T13:04:16.361Z,101824.41
2023-06-21T13:06:43.614Z,101795.22
2023-06-21T13:09:11.427Z,101812.13
2023-06-21T13:11:39.266Z,101842.34
2023-06-21T13:14:07.050Z,101836.50
2023-06-21T13:16:33.957Z,101845.47
2023-06-21T13:19:00.421Z,101839.19
2023-06-21T13:21:27.124Z,101826.22
2023-06-21T13:23:55.367Z,101845.84
2023-06-21T13:26:24.727Z,101818.84
2023-06-21T13:28:51.954Z,101817.41
2023-06-21T13:31:22.718Z,101850.69
2023-06-21T13:33:50.746Z,101822.47
2023-06-21T13:36:17.494Z,101831.97
2023-06-21T13:38:44.409Z,101828.13
2023-06-21T13:41:10.975Z,101835.31
2023-06-21T13:43:37.584Z,101846.66
2023-06-21T13:46:04.722Z,101840.38
2023-06-21T13:48:31.502Z,101824.28
2023-06-21T13:50:58.130Z,101840.47
2023-06-21T13:53:24.761Z,101815.72
2023-06-21T13:55:51.444Z,101833.53
2023-06-21T13:58:18.278Z,101832.56
2023-06-21T14:00:44.910Z,101833.63
2023-06-21T14:03:11.617Z,101819.25
2023-06-21T14:05:38.483Z,101831.53
2023-06-21T14:08:05.238Z,101815.31
2023-06-21T14:10:33.262Z,101840.59
2023-06-21T14:12:59.836Z,101829.94
2023-06-21T14:15:26.629Z,101849.81
2023-06-21T14:17:53.442Z,101837.00
2023-06-21T14:20:20.068Z,101850.00
2023-06-21T14:22:46.575Z,101843.34
2023-06-21T14:25:13.230Z,101828.22
2023-06-21T14:27:39.863Z,101861.28
2023-06-21T14:30:07.035Z,101861.38
2023-06-21T14:32:34.357Z,101849.22
2023-06-21T14:35:01.213Z,101866.88
2023-06-21T14:37:28.448Z,101833.91
2023-06-21T14:39:55.992Z,101847.69
2023-06-21T14:42:24.067Z,101841.59
2023-06-21T14:44:51.231Z,101840.66
2023-06-21T14:47:17.818Z,101856.09
2023-06-21T14:49:44.772Z,101858.25
2023-06-21T14:52:13.022Z,101862.56
2023-06-21T14:54:40.156Z,101870.13
2023-06-21T14:57:06.627Z,101867.28
2023-06-21T14:59:33.163Z,101870.75
2023-06-21T15:01:59.782Z,101882.13
2023-06-21T15:04:26.388Z,101859.75
2023-06-21T15:06:52.962Z,101882.03
2023-06-21T15:09:19.517Z,101885.44
2023-06-21T15:11:46.102Z,101878.59
2023-06-21T15:14:12.644Z,101880.13
2023-06-21T15:16:46.900Z,101882.97
2023-06-21T15:19:13.790Z,101863.28
2023-06-21T15:21:40.641Z,101864.25
2023-06-21T15:24:07.869Z,101889.22
2023-06-21T15:26:35.303Z,101893.00
2023-06-21T15:29:02.724Z,101892.16
2023-06-21T15:31:29.380Z,101876.31
2023-06-21T15:33:55.974Z,101898.66
2023-06-21T15:36:22.617Z,101896.88
2023-06-21T15:38:49.161Z,101880.69
2023-06-21T15:41:16.210Z,101894.47
2023-06-21T15:43:42.995Z,101893.81
2023-06-21T15:46:09.673Z,101900.13
2023-06-21T15:48:36.338Z,101891.63
2023-06-21T15:51:02.945Z,101909.91
2023-06-21T15:53:29.496Z,101901.31
2023-06-21T15:55:56.041Z,101885.13
2023-06-21T15:58:22.569Z,101905.09
2023-06-21T16:00:49.117Z,101919.00
2023-06-21T16:03:15.847Z,101913.59
2023-06-21T16:05:42.468Z,101911.97
2023-06-21T16:08:09.078Z,101906.50
2023-06-21T16:10:35.621Z,101904.69
2023-06-21T16:13:04.349Z,101912.56
2023-06-21T16:15:31.316Z,101909.91
2023-06-21T16:17:58.312Z,101912.56
2023-06-21T16:20:24.943Z,101914.47
2023-06-21T16:22:51.460Z,101911.03
2023-06-21T16:25:18.085Z,101908.69
2023-06-21T16:27:44.669Z,101905.09
2023-06-21T16:30:13.595Z,101904.16
2023-06-21T16:32:40.167Z,101901.78
2023-06-21T16:35:07.162Z,101899.38
2023-06-21T16:37:33.758Z,101901.78
2023-06-21T16:40:00.380Z,101891.25
2023-06-21T16:42:30.284Z,101908.84
2023-06-21T16:44:57.195Z,101885.06
2023-06-21T16:47:24.458Z,101887.06
2023-06-21T16:49:51.089Z,101909.56
2023-06-21T16:52:17.714Z,101916.59
2023-06-21T16:54:44.418Z,101907.72
2023-06-21T16:57:17.702Z,101913.94
2023-06-21T16:59:45.439Z,101886.63
2023-06-21T17:02:11.899Z,101919.25
2023-06-21T17:04:38.618Z,101915.06
2023-06-21T17:07:05.482Z,101917.47
2023-06-21T17:09:32.080Z,101916.78
2023-06-21T17:11:58.807Z,101921.56
2023-06-21T17:14:25.385Z,101927.31
2023-06-21T17:16:52.041Z,101891.19
2023-06-21T17:19:19.283Z,101919.06
2023-06-21T17:21:45.826Z,101920.16
2023-06-21T17:24:12.323Z,101922.16
2023-06-21T17:26:38.868Z,101926.66
2023-06-21T17:29:05.466Z,101929.34
2023-06-21T17:31:32.206Z,101923.25
2023-06-21T17:33:58.866Z,101928.03
2023-06-21T17:36:25.479Z,101928.09
2023-06-21T17:38:52.080Z,101900.91
2023-06-21T17:41:18.569Z,101932.06
2023-06-21T17:43:45.120Z,101951.59
2023-06-21T17:46:11.632Z,101958.69
2023-06-21T17:48:39.608Z,101932.78
2023-06-21T17:51:06.416Z,101944.81
2023-06-21T17:53:33.005Z,101946.59
2023-06-21T17:55:59.678Z,101925.38
2023-06-21T17:58:26.282Z,101939.50
2023-06-21T18:00:53.239Z,101943.09
2023-06-21T18:03:20.228Z,101967.28
2023-06-21T18:05:46.950Z,101962.19
2023-06-21T18:08:13.488Z,101965.09
2023-06-21T18:10:40.050Z,101969.59
2023-06-21T18:13:07.052Z,101949.19
2023-06-21T18:15:33.520Z,101966.94
2023-06-21T18:18:00.358Z,101965.31
2023-06-21T18:20:27.205Z,101931.72
2023-06-21T18:22:55.789Z,101962.13
2023-06-21T18:25:22.445Z,101967.56
2023-06-21T18:27:49.895Z,101968.59
2023-06-21T18:30:16.630Z,101960.25
2023-06-21T18:32:43.306Z,101962.91
2023-06-21T18:35:10.637Z,101951.53
2023-06-21T18:37:44.090Z,101945.44
2023-06-21T18:40:11.018Z,101939.66
2023-06-21T18:42:38.933Z,101922.78
2023-06-21T18:45:07.062Z,101940.72
2023-06-21T18:47:33.747Z,101947.00
2023-06-21T18:50:00.348Z,101959.50
2023-06-21T18:52:27.130Z,101945.56
2023-06-21T18:54:54.245Z,101953.72
2023-06-21T18:57:22.282Z,101951.09
2023-06-21T18:59:48.873Z,101949.59
2023-06-21T19:02:15.531Z,101946.22
2023-06-21T19:04:44.334Z,101930.47
2023-06-21T19:07:11.276Z,101943.13
2023-06-21T19:09:37.844Z,101934.47
2023-06-21T19:12:04.631Z,101939.41
2023-06-21T19:14:31.217Z,101941.19
2023-06-21T19:16:57.792Z,101935.19
2023-06-21T19:19:24.283Z,101934.78
2023-06-21T19:21:50.852Z,101938.81
2023-06-21T19:24:17.413Z,101929.66
2023-06-21T19:26:45.902Z,101946.47
2023-06-21T19:29:12.536Z,101937.97
2023-06-21T19:31:39.225Z,101939.03
2023-06-21T19:34:09.124Z,101911.56
2023-06-21T19:36:35.801Z,101942.69
2023-06-21T19:39:02.361Z,101916.22
2023-06-21T19:41:28.928Z,101932.81
2023-06-21T19:43:55.535Z,101943.59
2023-06-21T19:46:22.588Z,101945.66
2023-06-21T19:48:49.262Z,101944.66
2023-06-21T19:51:15.863Z,101949.63
2023-06-21T19:53:42.368Z,101951.81
2023-06-21T19:56:09.214Z,101964.84
2023-06-21T19:58:35.797Z,101963.91
2023-06-21T20:01:03.520Z,101942.47
2023-06-21T20:03:30.221Z,101964.84
2023-06-21T20:05:56.862Z,101969.22
2023-06-21T20:08:23.934Z,101961.06
2023-06-21T20:10:50.561Z,101965.34
2023-06-21T20:13:17.112Z,101965.28
2023-06-21T20:15:44.808Z,101942.00
2023-06-21T20:18:11.431Z,101968.66
2023-06-21T20:20:38.219Z,101967.75
2023-06-21T20:23:04.934Z,101976.53
2023-06-21T20:25:31.711Z,101986.25
2023-06-21T20:27:58.229Z,101990.88
2023-06-21T20:30:25.183Z,101997.19
2023-06-21T20:32:51.802Z,101978.56
2023-06-21T20:35:18.464Z,102004.78
2023-06-21T20:37:45.020Z,102014.69
2023-06-21T20:40:15.604Z,101988.31
2023-06-21T20:42:42.620Z,101968.41
2023-06-21T20:45:22.262Z,102012.63
2023-06-21T20:47:52.036Z,102006.00
2023-06-21T20:50:18.712Z,101989.00
2023-06-21T20:52:45.630Z,102022.97
2023-06-21T20:55:12.288Z,102018.13
2023-06-21T20:57:38.852Z,102017.50
2023-06-21T21:00:11.950Z,102021.19
2023-06-21T21:02:39.009Z,102011.00
2023-06-21T21:05:05.631Z,102012.97
2023-06-21T21:07:32.166Z,102021.28
2023-06-21T21:09:58.734Z,102029.63
2023-06-21T21:12:27.363Z,102016.78
2023-06-21T21:14:54.774Z,102004.34
2023-06-21T21:17:21.797Z,102025.94
2023-06-21T21:19:48.368Z,102026.88
2023-06-21T21:22:15.318Z,102031.31
2023-06-21T21:24:41.877Z,102033.91
2023-06-21T21:27:08.417Z,102036.50
2023-06-21T21:29:34.947Z,102038.19
2023-06-21T21:32:03.391Z,102047.84
2023-06-21T21:34:30.672Z,102042.56
2023-06-21T21:37:00.123Z,102046.09
2023-06-21T21:39:26.877Z,102044.69
2023-06-21T21:41:53.603Z,102053.81
2023-06-21T21:44:20.920Z,102041.72
2023-06-21T21:46:48.542Z,102029.34
2023-06-21T21:49:16.263Z,102047.50
2023-06-21T21:51:43.034Z,102031.88
2023-06-21T21:54:09.740Z,102027.31
2023-06-21T21:56:36.344Z,102025.53
2023-06-21T21:59:02.994Z,102023.75
2023-06-21T22:01:29.579Z,102014.16
2023-06-21T22:03:56.464Z,102012.56
2023-06-21T22:06:23.195Z,102008.34
2023-06-21T22:08:49.764Z,102019.94
2023-06-21T22:11:16.943Z,102017.34
2023-06-21T22:13:45.221Z,102019.16
2023-06-21T22:16:13.509Z,102021.81
2023-06-21T22:18:41.216Z,102028.97
2023-06-21T22:21:10.231Z,102013.75
2023-06-21T22:23:36.834Z,102017.50
2023-06-21T22:26:05.373Z,102002.94
2023-06-21T22:28:32.349Z,102034.53
2023-06-21T22:30:59.104Z,102044.34
2023-06-21T22:33:25.736Z,102047.16
2023-06-21T22:35:52.604Z,102020.59
2023-06-21T22:38:19.238Z,102050.19
2023-06-21T22:40:46.042Z,102047.84
2023-06-21T22:43:12.615Z,102045.47
2023-06-21T22:45:42.931Z,102049.00
2023-06-21T22:48:09.801Z,102016.00
2023-06-21T22:50:36.807Z,102039.19
2023-06-21T22:53:05.121Z,102038.28
2023-06-21T22:55:32.025Z,102043.63
2023-06-21T22:58:00.256Z,102034.22
2023-06-21T23:00:27.091Z,102035.06
2023-06-21T23:02:53.965Z,102035.22
2023-06-21T23:05:20.862Z,102039.63
2023-06-21T23:07:47.570Z,102007.84
2023-06-21T23:10:14.119Z,102035.56
2023-06-21T23:12:45.771Z,102041.75
2023-06-21T23:15:15.374Z,102035.72
2023-06-21T23:17:43.558Z,102050.50
2023-06-21T23:20:11.955Z,102036.53
2023-06-21T23:22:39.964Z,102054.88
2023-06-21T23:25:13.519Z,102043.66
2023-06-21T23:27:43.105Z,102030.09
2023-06-21T23:30:20.615Z,102055.47
2023-06-21T23:32:58.522Z,102039.44
2023-06-21T23:35:25.150Z,102058.47
2023-06-21T23:37:55.349Z,102059.28
2023-06-21T23:40:22.078Z,102064.31
2023-06-21T23:42:52.749Z,102058.28
2023-06-21T23:45:19.877Z,102065.88
2023-06-21T23:47:46.469Z,102070.13
2023-06-21T23:50:13.214Z,102056.22
2023-06-21T23:52:39.853Z,102074.44
2023-06-21T23:55:07.249Z,102075.44
2023-06-21T23:57:34.098Z,102085.09
